Time;durP1;ratioP1;P1;durP2;ratioP2;P2;SDS_P1;SDS_P2;PMS_P1;PMS_P2;Temp;Humidity;BMP_temperature;BMP_pressure;BME280_temperature;BME280_humidity;BME280_pressure;Samples;Min_cycle;Max_cycle;Signal;HPM_P1;HPM_P2
2022/05/14 00:01:01;;;;;;;7.73;6.47;;;;;;;19.74;57.70;99274.00;5052368;28;20258;-62
2022/05/14 00:03:29;;;;;;;10.87;7.40;;;;;;;19.73;57.54;99272.25;5052673;28;20184;-61
2022/05/14 00:05:59;;;;;;;7.70;6.67;;;;;;;19.79;57.16;99264.31;5052307;28;20204;-61
2022/05/14 00:08:27;;;;;;;7.90;7.00;;;;;;;19.83;57.11;99262.47;5052355;28;20248;-61
2022/05/14 00:13:39;;;;;;;11.53;7.83;;;;;;;19.87;56.57;99258.88;5052087;28;20287;-61
2022/05/14 00:16:09;;;;;;;9.00;8.10;;;;;;;19.89;56.69;99260.56;5051943;28;20192;-62
2022/05/14 00:18:36;;;;;;;9.40;8.50;;;;;;;19.87;56.60;99258.88;5051837;28;20200;-61
2022/05/14 00:21:03;;;;;;;19.63;8.20;;;;;;;19.80;57.04;99257.34;5052032;28;20192;-61
2022/05/14 00:23:31;;;;;;;9.23;8.33;;;;;;;19.72;57.31;99241.03;5051851;28;20196;-63
2022/05/14 00:25:58;;;;;;;10.93;8.90;;;;;;;19.76;57.46;99250.47;5052172;28;20188;-61
2022/05/14 00:28:25;;;;;;;12.13;9.57;;;;;;;19.77;57.75;99260.03;5051859;28;20188;-63
2022/05/14 00:30:51;;;;;;;11.13;9.47;;;;;;;19.75;57.88;99256.59;5051699;28;20216;-63
2022/05/14 00:33:20;;;;;;;11.37;9.17;;;;;;;19.68;58.46;99255.88;5051351;28;20188;-63
2022/05/14 00:35:47;;;;;;;9.87;8.70;;;;;;;19.70;58.37;99246.28;5051460;28;20196;-63
2022/05/14 00:38:14;;;;;;;11.87;10.03;;;;;;;19.63;58.92;99238.66;5051509;28;20228;-61
2022/05/14 00:40:42;;;;;;;14.97;9.80;;;;;;;19.67;59.14;99241.13;5051390;28;20196;-63
2022/05/14 00:43:10;;;;;;;10.13;9.00;;;;;;;19.62;59.43;99249.94;5051457;28;20659;-63
2022/05/14 00:45:41;;;;;;;12.70;9.50;;;;;;;19.55;59.90;99245.78;5051494;28;20196;-63
2022/05/14 00:48:11;;;;;;;11.33;9.83;;;;;;;19.52;60.00;99249.34;5051372;28;20193;-63
2022/05/14 00:50:43;;;;;;;12.37;10.40;;;;;;;19.47;60.24;99243.38;5051548;28;20224;-63
2022/05/14 00:53:14;;;;;;;10.40;9.40;;;;;;;19.47;60.34;99248.59;5051538;28;20682;-63
2022/05/14 00:55:44;;;;;;;12.47;10.30;;;;;;;19.50;60.41;99253.72;5051313;28;20287;-63
2022/05/14 00:58:15;;;;;;;11.90;10.13;;;;;;;19.47;60.76;99258.16;5051157;28;20211;-61
2022/05/14 01:00:42;;;;;;;11.90;9.90;;;;;;;19.45;60.81;99252.13;5051294;28;20275;-63
2022/05/14 01:03:08;;;;;;;13.67;10.20;;;;;;;19.43;60.78;99260.81;5051219;28;20196;-63
2022/05/14 01:05:36;;;;;;;14.40;9.17;;;;;;;19.43;60.73;99252.16;5051483;28;20191;-63
2022/05/14 01:08:05;;;;;;;10.10;9.00;;;;;;;19.40;60.92;99254.81;5050949;28;20196;-63
2022/05/14 01:10:37;;;;;;;10.37;9.40;;;;;;;19.34;61.15;99252.31;5051040;28;20215;-63
2022/05/14 01:13:05;;;;;;;10.87;9.73;;;;;;;19.32;61.43;99254.97;5051279;28;20189;-63
2022/05/14 01:15:42;;;;;;;12.53;9.80;;;;;;;19.30;61.21;99256.75;5050640;28;20290;-63
2022/05/14 01:18:09;;;;;;;11.20;9.90;;;;;;;19.26;61.57;99252.50;5050977;28;20188;-61
2022/05/14 01:20:37;;;;;;;13.47;9.73;;;;;;;19.25;61.53;99247.34;5050978;28;20207;-61
2022/05/14 01:23:15;;;;;;;9.67;8.77;;;;;;;19.15;62.00;99245.81;5050896;28;20195;-61
2022/05/14 01:28:34;;;;;;;10.13;8.83;;;;;;;19.10;62.11;99256.34;5051213;28;20191;-62
2022/05/14 01:31:02;;;;;;;9.20;8.30;;;;;;;18.92;62.20;99235.91;5050758;28;20216;-63
2022/05/14 01:33:29;;;;;;;10.67;8.80;;;;;;;18.99;62.61;99252.25;5050829;28;20590;-62
2022/05/14 01:35:56;;;;;;;10.77;8.97;;;;;;;18.94;62.91;99254.09;5050663;28;20713;-63
2022/05/14 01:38:25;;;;;;;11.57;8.73;;;;;;;18.88;63.08;99254.22;5050465;28;20235;-62
2022/05/14 01:40:52;;;;;;;11.07;9.47;;;;;;;18.86;63.15;99254.25;5050510;28;20594;-62
2022/05/14 01:43:19;;;;;;;11.73;9.50;;;;;;;18.85;63.50;99242.13;5050717;28;20198;-62
2022/05/14 01:45:47;;;;;;;9.93;8.90;;;;;;;18.84;63.26;99241.25;5050367;28;20694;-62
2022/05/14 01:48:15;;;;;;;9.87;8.70;;;;;;;18.81;63.39;99240.50;5050370;28;20203;-62
2022/05/14 01:50:42;;;;;;;9.73;8.87;;;;;;;18.75;63.64;99241.47;5049521;28;20690;-63
2022/05/14 01:53:09;;;;;;;9.33;8.53;;;;;;;18.76;63.85;99253.59;5050558;28;20277;-61
2022/05/14 01:55:36;;;;;;;10.37;8.90;;;;;;;18.74;63.75;99250.16;5050614;28;20192;-62
2022/05/14 01:58:36;;;;;;;11.60;8.60;;;;;;;18.74;63.58;99249.28;5050438;28;20587;-61
2022/05/14 02:00:54;;;;;;;10.47;9.20;;;;;;;18.64;64.02;99245.19;5050116;28;20223;-61
2022/05/14 02:03:21;;;;;;;10.07;8.53;;;;;;;18.53;64.33;99245.41;5050117;28;20224;-61
2022/05/14 02:05:48;;;;;;;9.90;8.97;;;;;;;18.53;64.13;99250.59;5050503;28;20200;-62
2022/05/14 02:08:15;;;;;;;10.43;9.47;;;;;;;18.54;64.28;99241.88;5059401;28;20665;-61
2022/05/14 02:10:42;;;;;;;10.00;9.03;;;;;;;18.52;64.37;99242.81;5070054;28;20265;-61
2022/05/14 02:13:11;;;;;;;10.57;9.57;;;;;;;18.46;64.44;99248.13;5070139;28;20195;-61
2022/05/14 02:15:37;;;;;;;10.03;9.03;;;;;;;18.37;64.46;99222.28;5069934;28;20207;-61
2022/05/14 02:18:06;;;;;;;12.07;9.57;;;;;;;18.41;64.84;99242.13;5070182;28;20585;-62
2022/05/14 02:20:33;;;;;;;10.43;9.07;;;;;;;18.46;64.75;99245.53;5069983;28;20195;-61
2022/05/14 02:22:59;;;;;;;10.70;9.60;;;;;;;18.44;64.50;99244.69;5070286;28;20191;-61
2022/05/14 02:25:26;;;;;;;9.83;8.87;;;;;;;18.50;64.70;99248.06;5069797;28;20670;-61
2022/05/14 02:27:53;;;;;;;9.97;8.60;;;;;;;18.46;64.33;99242.94;5070261;28;20195;-61
2022/05/14 02:30:20;;;;;;;13.37;9.30;;;;;;;18.44;64.20;99250.75;5070081;28;20202;-61
2022/05/14 02:32:47;;;;;;;11.03;9.40;;;;;;;18.46;63.94;99241.16;5070040;28;20597;-61
2022/05/14 02:35:15;;;;;;;9.50;8.63;;;;;;;18.44;64.15;99247.28;5070018;28;20198;-61
2022/05/14 02:37:42;;;;;;;11.50;9.07;;;;;;;18.43;63.95;99242.97;5069678;28;20202;-61
2022/05/14 02:40:09;;;;;;;10.33;8.60;;;;;;;18.33;63.96;99244.88;5070076;28;20196;-61
2022/05/14 02:42:36;;;;;;;9.87;8.97;;;;;;;18.32;64.33;99243.19;5069657;28;20191;-61
2022/05/14 02:45:04;;;;;;;12.03;9.50;;;;;;;18.33;64.18;99241.41;5070095;28;20179;-61
2022/05/14 02:47:31;;;;;;;10.47;9.47;;;;;;;18.27;64.36;99239.78;5069676;28;20188;-61
2022/05/14 02:49:57;;;;;;;14.20;9.82;;;;;;;18.28;64.70;99244.97;5069136;28;20494;-61
2022/05/14 02:52:26;;;;;;;10.57;9.60;;;;;;;18.23;64.68;99243.34;5069860;28;20216;-61
2022/05/14 02:54:53;;;;;;;10.70;9.60;;;;;;;18.17;64.92;99241.72;5069989;28;20510;-61
2022/05/14 02:57:20;;;;;;;11.23;9.27;;;;;;;18.19;64.45;99245.13;5069770;28;20195;-61
2022/05/14 02:59:47;;;;;;;11.10;9.50;;;;;;;18.13;64.38;99244.38;5069593;28;20191;-61
2022/05/14 03:02:14;;;;;;;10.47;9.10;;;;;;;18.11;64.74;99240.97;5071261;28;20188;-61
2022/05/14 03:04:44;;;;;;;11.60;10.00;;;;;;;18.12;64.87;99242.69;5073342;28;20192;-63
2022/05/14 03:07:13;;;;;;;11.00;9.90;;;;;;;18.10;64.92;99245.31;5072990;28;20662;-63
2022/05/14 03:09:41;;;;;;;12.87;9.50;;;;;;;18.12;64.70;99240.09;5073281;28;20213;-63
2022/05/14 03:12:11;;;;;;;11.87;10.70;;;;;;;18.13;64.58;99239.19;5073601;28;20215;-62
2022/05/14 03:14:38;;;;;;;13.02;10.52;;;;;;;18.10;65.12;99231.47;5072386;28;21267;-62
2022/05/14 03:17:05;;;;;;;10.33;9.33;;;;;;;18.23;64.35;99248.56;5073560;28;20195;-61
2022/05/14 03:19:32;;;;;;;11.20;9.87;;;;;;;18.01;64.05;99198.69;5073291;28;20199;-63
2022/05/14 03:21:59;;;;;;;9.93;8.93;;;;;;;18.25;63.75;99236.38;5073310;28;20195;-61
2022/05/14 03:24:27;;;;;;;10.30;9.40;;;;;;;18.24;63.77;99245.03;5073216;28;20199;-61
2022/05/14 03:26:55;;;;;;;10.40;9.40;;;;;;;18.22;64.07;99234.69;5073200;28;20196;-62
2022/05/14 03:29:22;;;;;;;11.37;9.83;;;;;;;18.11;64.51;99228.81;5072969;28;20191;-61
2022/05/14 03:31:49;;;;;;;14.03;9.57;;;;;;;18.18;64.63;99242.59;5072935;28;20226;-61
2022/05/14 03:34:17;;;;;;;12.53;9.40;;;;;;;18.25;64.29;99250.25;5073162;28;20188;-61
2022/05/14 03:36:44;;;;;;;9.80;8.90;;;;;;;18.19;64.16;99244.28;5072834;28;20705;-61
2022/05/14 03:39:11;;;;;;;10.90;9.20;;;;;;;18.21;63.85;99247.72;5071082;28;20254;-61
2022/05/14 03:41:38;;;;;;;9.80;8.83;;;;;;;18.25;63.96;99238.97;5072818;28;20198;-61
2022/05/14 03:44:06;;;;;;;11.00;9.13;;;;;;;18.28;63.81;99242.38;5072392;28;20196;-61
2022/05/14 03:46:33;;;;;;;10.13;9.17;;;;;;;18.32;64.08;99253.59;5072451;28;20192;-63
2022/05/14 03:49:00;;;;;;;11.00;9.83;;;;;;;18.35;63.88;99247.47;5072459;28;20674;-61
2022/05/14 03:51:28;;;;;;;10.57;9.23;;;;;;;18.41;63.18;99242.13;5072587;28;20223;-61
2022/05/14 03:53:55;;;;;;;9.70;8.90;;;;;;;18.50;62.82;99253.25;5072559;28;20196;-62
2022/05/14 03:56:22;;;;;;;14.53;8.77;;;;;;;18.56;62.46;99265.28;5072662;28;20206;-61
2022/05/14 03:58:49;;;;;;;9.73;8.50;;;;;;;18.54;62.29;99257.50;5072278;28;20198;-61
2022/05/14 04:01:17;;;;;;;9.80;8.73;;;;;;;18.57;62.29;99267.03;5072298;28;20196;-62
2022/05/14 04:03:45;;;;;;;9.70;8.80;;;;;;;18.54;62.05;99272.28;5072321;28;20254;-61
2022/05/14 04:06:12;;;;;;;10.60;8.60;;;;;;;18.61;62.02;99272.13;5072230;28;20192;-62
2022/05/14 04:08:40;;;;;;;11.17;8.40;;;;;;;18.70;61.31;99274.56;5072084;28;20223;-62
2022/05/14 04:11:07;;;;;;;9.63;8.83;;;;;;;18.72;60.78;99266.69;5072101;28;20202;-61
2022/05/14 04:13:35;;;;;;;9.27;7.90;;;;;;;18.89;60.42;99281.97;5071211;28;20196;-62
2022/05/14 04:16:02;;;;;;;9.48;8.57;;;;;;;18.89;60.50;99288.06;5071658;28;20450;-62
2022/05/14 04:18:30;;;;;;;9.20;8.20;;;;;;;19.01;60.38;99287.78;5072163;28;20191;-62
2022/05/14 04:20:59;;;;;;;10.87;8.57;;;;;;;19.09;60.40;99293.69;5072137;28;20210;-62
2022/05/14 04:23:28;;;;;;;10.73;8.27;;;;;;;19.12;60.07;99280.59;5072146;28;20677;-63
2022/05/14 04:25:56;;;;;;;12.90;8.87;;;;;;;19.21;59.58;99289.97;5072131;28;20199;-62
2022/05/14 04:28:24;;;;;;;9.67;8.67;;;;;;;19.23;59.52;99286.44;5072055;28;20578;-61
2022/05/14 04:30:51;;;;;;;9.60;8.60;;;;;;;19.32;58.95;99294.03;5071627;28;20202;-62
2022/05/14 04:33:19;;;;;;;10.10;9.20;;;;;;;19.19;58.82;99263.97;5071721;28;20215;-61
2022/05/14 04:35:48;;;;;;;9.03;8.23;;;;;;;19.39;58.71;99303.47;5071585;28;20188;-61
2022/05/14 04:38:15;;;;;;;9.67;8.77;;;;;;;19.43;58.76;99299.91;5071789;28;20590;-61
2022/05/14 04:40:44;;;;;;;10.27;9.30;;;;;;;19.45;58.94;99296.44;5071496;28;20191;-61
2022/05/14 04:43:12;;;;;;;11.70;9.67;;;;;;;19.47;59.11;99300.72;5071754;28;20192;-62
2022/05/14 04:45:43;;;;;;;9.97;8.97;;;;;;;19.56;59.18;99303.09;5071409;28;20624;-62
2022/05/14 04:48:11;;;;;;;12.23;9.10;;;;;;;19.57;59.11;99309.16;5071588;28;20187;-62
2022/05/14 04:50:39;;;;;;;12.20;9.20;;;;;;;19.46;59.47;99277.28;5071095;28;20260;-61
2022/05/14 04:53:07;;;;;;;11.40;9.60;;;;;;;19.72;58.78;99308.81;5071217;28;20269;-61
2022/05/14 04:55:34;;;;;;;11.77;9.53;;;;;;;19.74;58.63;99299.19;5071195;28;20195;-61
2022/05/14 04:58:01;;;;;;;12.93;10.03;;;;;;;19.86;58.41;99306.75;5071020;28;20195;-61
2022/05/14 05:00:28;;;;;;;11.13;9.00;;;;;;;19.94;57.78;99302.19;5071121;28;20191;-62
2022/05/14 05:05:40;;;;;;;11.60;9.90;;;;;;;19.98;57.95;99299.47;5070817;28;20199;-61
2022/05/14 05:08:09;;;;;;;12.03;8.63;;;;;;;20.03;57.46;99307.16;5071199;28;20214;-61
2022/05/14 05:10:37;;;;;;;10.70;9.60;;;;;;;20.12;57.42;99312.16;5070841;28;20203;-61
2022/05/14 05:13:04;;;;;;;12.83;9.30;;;;;;;20.24;57.05;99313.59;5070749;28;20763;-62
2022/05/14 05:15:31;;;;;;;9.47;8.67;;;;;;;20.34;56.95;99310.75;5069889;28;20207;-62
2022/05/14 05:17:58;;;;;;;9.50;8.63;;;;;;;20.39;55.73;99310.63;5070738;28;20192;-62
2022/05/14 05:20:25;;;;;;;8.70;7.90;;;;;;;20.44;55.40;99314.81;5070872;28;20563;-62
2022/05/14 05:22:51;;;;;;;9.30;8.37;;;;;;;20.57;55.14;99307.53;5070687;28;20562;-62
2022/05/14 05:25:20;;;;;;;9.73;7.83;;;;;;;20.66;54.47;99314.25;5070999;28;20188;-62
2022/05/14 05:27:47;;;;;;;10.77;8.20;;;;;;;20.67;54.24;99315.94;5064325;28;20191;-62
2022/05/14 05:30:14;;;;;;;11.00;8.60;;;;;;;20.80;54.47;99317.31;5069242;28;20195;-62
2022/05/14 05:32:41;;;;;;;11.13;8.27;;;;;;;20.90;54.10;99318.81;5070205;28;20192;-62
2022/05/14 05:35:09;;;;;;;11.07;7.67;;;;;;;20.97;54.12;99304.66;5069628;28;20213;-63
2022/05/14 05:37:36;;;;;;;8.77;7.97;;;;;;;21.10;53.91;99312.13;5069677;28;20665;-62
2022/05/14 05:40:04;;;;;;;10.07;7.83;;;;;;;21.24;53.54;99314.31;5069938;28;20214;-62
2022/05/14 05:42:33;;;;;;;8.77;7.97;;;;;;;21.43;52.64;99306.78;5068967;28;20437;-62
2022/05/14 05:45:00;;;;;;;9.77;7.90;;;;;;;21.53;52.31;99311.72;5069765;28;20444;-62
2022/05/14 05:47:27;;;;;;;8.93;7.50;;;;;;;21.45;52.19;99303.22;5070377;28;20196;-63
2022/05/14 05:49:54;;;;;;;8.83;7.93;;;;;;;21.53;51.94;99309.09;5069966;28;20661;-62
2022/05/14 05:52:21;;;;;;;8.40;7.70;;;;;;;21.54;52.45;99309.91;5070188;28;20231;-63
2022/05/14 05:57:36;;;;;;;11.33;8.53;;;;;;;21.83;52.66;99314.25;5070115;28;20237;-63
2022/05/14 06:00:05;;;;;;;10.60;9.27;;;;;;;21.90;52.09;99315.78;5070008;28;20654;-63
2022/05/14 06:02:32;;;;;;;11.93;8.27;;;;;;;21.84;51.74;99322.03;5069986;28;20188;-63
2022/05/14 06:04:59;;;;;;;8.70;7.80;;;;;;;21.90;51.35;99314.03;5069872;28;20630;-64
2022/05/14 06:07:26;;;;;;;9.15;8.25;;;;;;;21.98;51.30;99314.63;5062841;28;20445;-63
2022/05/14 06:09:53;;;;;;;9.23;8.33;;;;;;;22.11;51.12;99294.16;5064057;28;20677;-63
2022/05/14 06:12:20;;;;;;;8.40;7.60;;;;;;;22.38;50.94;99316.78;5063261;28;20205;-62
2022/05/14 06:14:48;;;;;;;10.63;8.30;;;;;;;22.62;50.53;99317.69;5067147;28;20290;-62
2022/05/14 06:17:15;;;;;;;11.13;8.53;;;;;;;22.78;49.88;99318.88;5068763;28;20442;-61
2022/05/14 06:19:42;;;;;;;9.83;8.63;;;;;;;23.04;49.63;99321.41;5069433;28;20200;-61
2022/05/14 06:22:09;;;;;;;9.20;7.90;;;;;;;23.23;48.63;99330.31;5069521;28;20187;-63
2022/05/14 06:24:37;;;;;;;11.37;8.20;;;;;;;23.23;48.35;99321.56;5069360;28;20650;-62
2022/05/14 06:27:04;;;;;;;9.63;8.50;;;;;;;23.25;48.64;99325.84;5069401;28;20183;-62
2022/05/14 06:29:32;;;;;;;10.10;8.50;;;;;;;23.35;48.44;99326.34;5069602;28;20222;-62
2022/05/14 06:32:00;;;;;;;10.87;8.70;;;;;;;23.20;48.37;99325.19;5068646;28;20245;-62
2022/05/14 06:34:27;;;;;;;12.90;8.33;;;;;;;23.25;48.04;99325.00;5067745;28;20195;-62
2022/05/14 06:36:54;;;;;;;10.53;8.53;;;;;;;23.42;48.49;99325.25;5070746;28;20586;-61
2022/05/14 06:39:21;;;;;;;8.70;7.83;;;;;;;23.59;48.80;99330.69;5073330;28;20234;-61
2022/05/14 06:41:49;;;;;;;10.23;8.90;;;;;;;23.72;48.37;99320.56;5073262;28;20614;-61
2022/05/14 06:44:16;;;;;;;9.43;8.53;;;;;;;23.74;48.39;99324.81;5073745;28;20191;-62
2022/05/14 06:46:43;;;;;;;9.67;8.77;;;;;;;23.74;48.76;99329.22;5073657;28;20195;-61
2022/05/14 06:49:12;;;;;;;10.50;9.47;;;;;;;23.79;48.25;99329.88;5073477;28;21022;-56
2022/05/14 06:51:40;;;;;;;8.57;7.73;;;;;;;23.80;48.36;99327.22;5073089;28;20252;-56
2022/05/14 06:54:09;;;;;;;8.37;7.57;;;;;;;23.84;48.88;99335.81;5072953;28;20222;-56
2022/05/14 06:56:41;;;;;;;8.57;7.60;;;;;;;23.84;47.93;99331.41;5072958;28;20593;-56
2022/05/14 06:59:09;;;;;;;8.50;7.80;;;;;;;23.80;48.05;99334.22;5072780;28;20199;-56
2022/05/14 07:01:38;;;;;;;8.97;7.97;;;;;;;23.56;48.37;99338.69;5072760;28;20661;-57
2022/05/14 07:06:54;;;;;;;10.50;7.90;;;;;;;23.76;48.10;99322.16;5072514;28;20191;-56
2022/05/14 07:09:23;;;;;;;10.03;8.13;;;;;;;23.87;48.47;99331.28;5072778;28;20261;-57
2022/05/14 07:11:53;;;;;;;9.17;8.37;;;;;;;24.03;47.81;99340.25;5072476;28;20223;-57
2022/05/14 07:14:20;;;;;;;9.77;8.80;;;;;;;24.20;47.87;99328.25;5071075;28;20219;-57
2022/05/14 07:16:50;;;;;;;9.60;8.60;;;;;;;24.40;47.73;99331.75;5071385;28;20196;-57
2022/05/14 07:19:17;;;;;;;11.63;9.37;;;;;;;24.51;46.98;99339.16;5072207;28;20314;-57
2022/05/14 07:21:47;;;;;;;9.77;8.10;;;;;;;24.63;46.78;99325.50;5071995;28;20198;-57
2022/05/14 07:24:18;;;;;;;10.23;8.23;;;;;;;24.65;47.00;99335.03;5071573;28;20183;-56
2022/05/14 07:26:45;;;;;;;19.17;13.13;;;;;;;24.73;47.05;99329.44;5071808;28;20298;-56
2022/05/14 07:29:15;;;;;;;8.97;7.90;;;;;;;25.01;46.93;99335.22;5062410;28;20207;-56
2022/05/14 07:31:42;;;;;;;10.37;9.23;;;;;;;25.33;46.73;99343.41;5055178;28;20204;-57
2022/05/14 07:34:09;;;;;;;9.23;8.20;;;;;;;25.50;45.58;99339.09;5072107;28;20222;-56
2022/05/14 07:36:40;;;;;;;11.07;9.97;;;;;;;25.71;44.88;99332.81;5072013;28;20192;-57
2022/05/14 07:39:07;;;;;;;9.37;8.57;;;;;;;26.05;44.89;99337.31;5062133;28;20702;-57
2022/05/14 07:41:39;;;;;;;9.70;8.30;;;;;;;26.37;44.58;99336.59;5052107;28;20667;-58
2022/05/14 07:44:09;;;;;;;9.18;8.25;;;;;;;26.53;43.33;99334.03;5051928;28;20197;-56
2022/05/14 07:46:37;;;;;;;10.40;8.47;;;;;;;26.82;43.27;99335.19;5051082;28;20250;-58
2022/05/14 07:49:10;;;;;;;10.10;9.10;;;;;;;26.93;42.94;99325.78;5049830;28;20279;-57
2022/05/14 07:51:37;;;;;;;10.48;8.18;;;;;;;27.01;42.95;99335.91;5051586;28;20232;-57
2022/05/14 07:54:05;;;;;;;9.50;8.60;;;;;;;27.25;42.01;99339.88;5051461;28;20220;-57
2022/05/14 07:56:33;;;;;;;8.47;7.67;;;;;;;27.13;40.92;99342.34;5051454;28;20200;-58
2022/05/14 07:59:03;;;;;;;10.15;7.60;;;;;;;26.96;40.17;99343.22;5051203;28;20254;-58
2022/05/14 08:01:30;;;;;;;8.75;7.95;;;;;;;27.16;40.07;99356.22;5051061;28;20189;-57
2022/05/14 08:03:57;;;;;;;8.40;6.85;;;;;;;27.14;38.99;99355.44;5051041;28;20650;-57
2022/05/14 08:06:24;;;;;;;8.05;7.22;;;;;;;26.75;39.29;99368.91;5051183;28;20189;-58
2022/05/14 08:08:53;;;;;;;7.63;7.03;;;;;;;26.52;39.69;99369.22;5051400;28;20219;-58
2022/05/14 08:11:20;;;;;;;10.48;7.28;;;;;;;26.27;40.20;99353.78;5051070;28;20246;-58
2022/05/14 08:13:47;;;;;;;9.40;6.95;;;;;;;26.07;41.22;99368.84;5051177;28;20318;-58
2022/05/14 08:16:16;;;;;;;8.37;7.50;;;;;;;26.01;40.79;99366.50;5051185;28;20196;-57
2022/05/14 08:18:43;;;;;;;8.70;7.95;;;;;;;26.00;41.46;99376.19;5051038;28;20200;-59
2022/05/14 08:26:37;;;;;;;9.27;8.07;;;;;;;25.89;42.13;99367.09;5050692;28;20219;-57
2022/05/14 08:29:04;;;;;;;11.30;8.18;;;;;;;25.90;42.62;99372.28;5056063;28;20199;-57
2022/05/14 08:31:33;;;;;;;8.57;7.80;;;;;;;25.94;42.52;99379.09;5052482;28;20203;-56
2022/05/14 08:34:00;;;;;;;11.77;8.15;;;;;;;25.98;43.02;99387.72;5060732;28;20223;-57
2022/05/14 08:36:27;;;;;;;8.52;7.72;;;;;;;25.79;42.89;99393.00;5063828;28;20211;-57
2022/05/14 08:38:54;;;;;;;8.25;7.45;;;;;;;25.82;42.76;99395.50;5069324;28;20226;-58
2022/05/14 08:41:22;;;;;;;7.85;7.22;;;;;;;25.69;42.92;99396.97;5067348;28;20192;-56
2022/05/14 08:43:53;;;;;;;9.20;8.07;;;;;;;25.67;43.60;99401.47;5070372;28;20202;-63
2022/05/14 08:46:23;;;;;;;8.67;7.90;;;;;;;25.55;43.94;99404.66;5070256;28;20290;-62
2022/05/14 08:48:53;;;;;;;9.60;7.68;;;;;;;25.55;43.90;99412.56;5070220;28;20214;-63
2022/05/14 08:51:23;;;;;;;10.60;7.85;;;;;;;25.66;44.06;99413.78;5070633;28;20199;-62
2022/05/14 08:53:51;;;;;;;13.03;8.10;;;;;;;25.57;43.92;99414.19;5070015;28;20261;-63
2022/05/14 08:56:27;;;;;;;14.05;9.05;;;;;;;25.55;44.45;99437.09;5070326;28;20221;-63
2022/05/14 08:59:31;;;;;;;10.57;8.30;;;;;;;25.30;45.59;99431.19;5070364;28;20205;-62
2022/05/14 09:02:01;;;;;;;13.57;8.87;;;;;;;25.19;46.31;99439.56;5070140;28;20657;-62
2022/05/14 09:04:30;;;;;;;13.57;8.63;;;;;;;24.71;47.84;99451.31;5070418;28;20295;-61
2022/05/14 09:06:57;;;;;;;9.27;8.37;;;;;;;24.52;48.80;99461.72;5069848;28;20286;-61
2022/05/14 09:09:24;;;;;;;8.57;7.77;;;;;;;24.24;47.84;99466.38;5070286;28;20662;-62
2022/05/14 09:11:56;;;;;;;8.17;7.37;;;;;;;24.08;48.17;99464.31;5070475;28;20176;-62
2022/05/14 09:14:27;;;;;;;8.90;7.27;;;;;;;24.12;47.38;99465.06;5069609;28;20275;-58
2022/05/14 09:17:04;;;;;;;7.60;6.80;;;;;;;24.15;46.63;99471.97;5070702;28;20192;-57
2022/05/14 09:19:39;;;;;;;7.13;6.43;;;;;;;24.16;45.99;99471.94;5070587;28;20645;-57
2022/05/14 09:22:13;;;;;;;6.10;5.60;;;;;;;24.08;44.82;99469.56;5070770;28;20182;-57
2022/05/14 09:24:44;;;;;;;9.07;6.77;;;;;;;23.98;45.44;99476.06;5070007;28;20203;-57
2022/05/14 09:27:21;;;;;;;7.10;6.40;;;;;;;23.99;45.65;99472.56;5070169;28;20264;-57
2022/05/14 09:29:51;;;;;;;7.57;6.87;;;;;;;24.05;46.30;99474.94;5070133;28;20227;-57
2022/05/14 09:32:34;;;;;;;7.40;6.80;;;;;;;23.94;46.89;99474.50;5069794;28;20198;-57
2022/05/14 09:35:13;;;;;;;12.70;6.73;;;;;;;23.87;47.47;99474.81;5069697;28;20230;-57
2022/05/14 09:37:41;;;;;;;8.83;7.20;;;;;;;23.84;48.55;99464.41;5070052;28;20195;-57
2022/05/14 09:40:13;;;;;;;9.63;7.10;;;;;;;23.87;49.15;99461.69;5069531;28;20282;-57
2022/05/14 09:42:44;;;;;;;7.40;6.50;;;;;;;23.73;49.46;99461.34;5068817;28;20633;-57
2022/05/14 09:45:33;;;;;;;7.90;7.10;;;;;;;23.62;50.82;99467.00;5049901;28;20197;-58
2022/05/14 09:48:12;;;;;;;8.80;6.93;;;;;;;23.53;51.64;99445.47;5046924;28;20555;-58
2022/05/14 09:50:42;;;;;;;8.83;7.50;;;;;;;23.67;55.16;99467.69;5050017;28;20192;-57
2022/05/14 09:53:09;;;;;;;8.43;6.90;;;;;;;23.59;54.92;99477.59;5049448;28;20216;-57
2022/05/14 09:56:13;;;;;;;10.77;7.40;;;;;;;23.56;54.27;99482.09;5050020;28;20246;-56
2022/05/14 09:58:48;;;;;;;9.50;7.80;;;;;;;23.52;53.53;99480.47;5069880;28;20582;-57
2022/05/14 10:01:26;;;;;;;9.53;7.30;;;;;;;23.34;55.15;99467.09;5069279;28;20191;-57
2022/05/14 10:04:06;;;;;;;8.40;7.03;;;;;;;23.48;53.07;99477.13;5069702;28;20468;-57
2022/05/14 10:06:43;;;;;;;9.80;6.70;;;;;;;23.63;53.99;99479.19;5069440;28;20199;-57
2022/05/14 10:09:28;;;;;;;8.60;7.27;;;;;;;23.58;54.18;99467.16;5066114;28;20633;-57
2022/05/14 10:12:01;;;;;;;9.77;7.23;;;;;;;23.73;56.60;99458.72;5048531;28;20204;-56
2022/05/14 10:14:44;;;;;;;8.70;7.13;;;;;;;23.75;56.65;99444.63;5049299;28;20223;-56
2022/05/14 10:17:24;;;;;;;9.47;8.03;;;;;;;23.79;56.21;99438.34;5049128;28;20192;-58
2022/05/14 10:20:05;;;;;;;11.13;7.53;;;;;;;23.79;56.99;99425.22;5052049;28;20195;-57
2022/05/14 10:28:35;;;;;;;9.97;7.27;;;;;;;23.58;57.32;99431.28;5068391;28;20234;-62
2022/05/14 10:31:11;;;;;;;7.93;7.23;;;;;;;23.59;56.68;99437.38;5068667;28;20195;-61
2022/05/14 10:33:37;;;;;;;11.20;7.10;;;;;;;23.81;57.24;99464.53;5068479;28;20585;-62
2022/05/14 10:36:16;;;;;;;11.07;7.73;;;;;;;23.93;56.61;99467.53;5068222;28;20183;-56
2022/05/14 10:38:50;;;;;;;13.30;7.50;;;;;;;24.03;56.72;99463.63;5068032;28;20254;-56
2022/05/14 10:41:28;;;;;;;12.90;7.50;;;;;;;24.27;56.91;99488.13;5053142;28;20291;-56
2022/05/14 10:43:59;;;;;;;8.07;7.27;;;;;;;24.50;55.56;99480.16;5069098;28;20199;-56
2022/05/14 10:46:29;;;;;;;10.97;7.07;;;;;;;24.81;56.85;99479.78;5068770;28;20195;-56
2022/05/14 10:49:00;;;;;;;7.43;6.77;;;;;;;24.86;55.87;99475.19;5069349;28;20192;-57
2022/05/14 10:51:30;;;;;;;10.60;7.60;;;;;;;24.88;56.00;99480.41;5068825;28;20206;-56
2022/05/14 10:54:00;;;;;;;10.40;6.63;;;;;;;24.84;55.14;99479.66;5068910;28;20219;-56
2022/05/14 10:56:33;;;;;;;7.20;6.50;;;;;;;24.83;55.25;99471.84;5068688;28;20573;-57
2022/05/14 10:59:05;;;;;;;6.90;6.30;;;;;;;24.81;56.14;99471.03;5068621;28;20196;-57
2022/05/14 11:01:36;;;;;;;6.43;5.57;;;;;;;24.89;53.52;99476.84;5069085;28;20598;-57
2022/05/14 11:04:19;;;;;;;5.40;4.90;;;;;;;24.79;54.05;99481.63;5068712;28;20192;-57
2022/05/14 11:06:55;;;;;;;4.53;3.90;;;;;;;24.73;54.15;99476.59;5068740;28;20207;-57
2022/05/14 11:09:36;;;;;;;4.13;3.80;;;;;;;24.36;54.38;99455.38;5066113;28;20198;-57
2022/05/14 11:12:06;;;;;;;5.80;4.83;;;;;;;24.37;55.92;99489.47;5067386;28;20732;-57
2022/05/14 11:14:39;;;;;;;5.70;5.00;;;;;;;24.04;56.35;99473.22;5068718;28;20223;-57
2022/05/14 11:17:19;;;;;;;5.90;5.30;;;;;;;24.03;57.16;99462.78;5068749;28;20187;-56
2022/05/14 11:19:46;;;;;;;7.57;5.23;;;;;;;24.10;55.73;99466.91;5069012;28;20196;-57
2022/05/14 11:22:23;;;;;;;6.67;6.07;;;;;;;24.23;56.52;99462.06;5068572;28;20192;-58
2022/05/14 11:24:53;;;;;;;6.23;5.63;;;;;;;24.52;56.55;99453.84;5072597;28;20192;-56
2022/05/14 11:27:32;;;;;;;7.60;6.90;;;;;;;24.56;56.03;99463.28;5072373;28;20209;-56
2022/05/14 11:30:02;;;;;;;7.90;7.10;;;;;;;24.48;56.25;99447.00;5071514;28;20196;-56
2022/05/14 11:32:41;;;;;;;8.50;7.40;;;;;;;24.38;56.92;99438.66;5071802;28;20198;-56
2022/05/14 11:35:08;;;;;;;8.17;7.37;;;;;;;24.38;56.23;99437.78;5065714;28;20231;-56
2022/05/14 11:37:37;;;;;;;13.73;6.97;;;;;;;24.35;56.41;99430.88;5071220;28;20207;-56
2022/05/14 11:40:16;;;;;;;8.20;7.40;;;;;;;24.34;57.08;99433.56;5071177;28;20190;-57
2022/05/14 11:42:45;;;;;;;10.27;7.70;;;;;;;24.45;57.02;99428.72;5070758;28;20218;-57
2022/05/14 11:45:17;;;;;;;7.67;6.90;;;;;;;24.64;56.15;99429.66;5071011;28;20685;-57
2022/05/14 11:48:03;;;;;;;7.40;6.70;;;;;;;24.75;55.42;99435.34;5064624;28;20786;-56
2022/05/14 11:50:36;;;;;;;7.73;6.97;;;;;;;24.81;55.55;99426.38;5069283;28;20249;-57
2022/05/14 11:53:17;;;;;;;7.82;7.05;;;;;;;25.11;55.78;99425.03;5070961;28;20200;-57
2022/05/14 11:55:49;;;;;;;9.20;7.20;;;;;;;25.23;54.85;99412.22;5070811;28;20324;-57
2022/05/14 11:58:22;;;;;;;8.80;7.53;;;;;;;25.40;54.01;99408.84;5070564;28;20203;-57
2022/05/14 12:00:52;;;;;;;6.73;6.20;;;;;;;25.13;53.63;99403.00;5069077;28;20183;-56
2022/05/14 12:03:23;;;;;;;7.67;6.67;;;;;;;25.28;53.10;99404.13;5070870;28;20227;-57
2022/05/14 12:05:53;;;;;;;7.75;7.00;;;;;;;24.99;53.41;99363.34;5071331;28;20191;-57